Time;durP1;ratioP1;P1;durP2;ratioP2;P2;SDS_P1;SDS_P2;PMS_P1;PMS_P2;Temp;Humidity;BMP_temperature;BMP_pressure;BME280_temperature;BME280_humidity;BME280_pressure;Samples;Min_cycle;Max_cycle;Signal;HPM_P1;HPM_P2
2022/10/31 00:00:56;;;;;;;;;9.00;9.00;;;;;22.51;48.92;101497.66;5000836;28;45281;-52
2022/10/31 00:03:21;;;;;;;;;8.00;8.00;;;;;22.52;48.80;101494.09;5005648;28;45145;-53
2022/10/31 00:05:49;;;;;;;;;8.50;8.50;;;;;22.53;48.92;101500.19;5004250;28;45330;-50
2022/10/31 00:08:15;;;;;;;;;9.00;8.00;;;;;22.52;48.77;101506.41;4997623;28;45798;-54
2022/10/31 00:10:41;;;;;;;;;11.50;7.00;;;;;22.52;48.63;101507.28;4998677;28;45623;-56
2022/10/31 00:13:07;;;;;;;;;11.25;7.25;;;;;22.51;48.73;101508.22;4999505;28;45609;-49
2022/10/31 00:15:38;;;;;;;;;9.75;9.00;;;;;22.52;48.56;101504.66;4999235;28;46189;-52
2022/10/31 00:18:04;;;;;;;;;11.00;7.00;;;;;22.51;48.61;101508.22;5000942;28;45801;-54
2022/10/31 00:20:29;;;;;;;;;6.00;5.75;;;;;22.51;48.76;101502.06;5000609;28;45266;-53
2022/10/31 00:23:01;;;;;;;;;7.75;7.00;;;;;22.51;48.88;101500.28;5001128;28;45611;-45
2022/10/31 00:25:28;;;;;;;;;9.25;7.75;;;;;22.51;48.81;101492.38;4998468;28;45541;-51
2022/10/31 00:27:53;;;;;;;;;7.25;7.25;;;;;22.51;48.82;101497.66;4998303;28;45801;-50
2022/10/31 00:30:19;;;;;;;;;7.00;7.00;;;;;22.50;48.57;101495.94;4997258;28;45213;-55
2022/10/31 00:32:44;;;;;;;;;8.25;6.75;;;;;22.51;48.77;101492.38;4997763;28;45730;-49
2022/10/31 00:35:09;;;;;;;;;7.00;7.00;;;;;22.50;48.37;101498.59;4996758;28;46020;-51
2022/10/31 00:37:35;;;;;;;;;6.00;6.00;;;;;22.50;48.69;101498.59;4998653;28;63348;-50
2022/10/31 00:40:01;;;;;;;;;10.25;8.00;;;;;22.50;49.07;101498.59;5001120;28;45702;-50
2022/10/31 00:42:26;;;;;;;;;8.50;7.00;;;;;22.50;48.49;101500.34;5006346;28;45487;-45
2022/10/31 00:44:51;;;;;;;;;7.25;6.25;;;;;22.50;48.74;101509.16;5004312;28;48928;-50
2022/10/31 00:47:16;;;;;;;;;8.00;8.00;;;;;22.50;48.77;101503.88;5007690;28;45300;-51
2022/10/31 00:49:42;;;;;;;;;9.00;9.00;;;;;22.49;48.82;101496.88;5007283;28;58377;-54
2022/10/31 00:52:07;;;;;;;;;9.25;8.00;;;;;22.50;48.71;101497.72;5003901;28;48245;-51
2022/10/31 00:54:32;;;;;;;;;8.00;7.25;;;;;22.50;48.55;101489.78;5000717;28;45382;-56
2022/10/31 00:56:58;;;;;;;;;8.00;6.00;;;;;22.49;48.70;101485.47;5001933;28;45410;-48
2022/10/31 00:59:23;;;;;;;;;8.25;8.00;;;;;22.50;48.70;101492.44;5005573;28;45316;-48
2022/10/31 01:01:49;;;;;;;;;9.00;6.00;;;;;22.49;48.87;101496.88;4997451;28;49049;-48
2022/10/31 01:04:14;;;;;;;;;7.00;6.75;;;;;22.49;48.70;101496.88;4997167;28;46150;-44
2022/10/31 01:06:39;;;;;;;;;9.00;8.00;;;;;22.50;48.54;101492.44;4997343;28;45489;-53
2022/10/31 01:09:05;;;;;;;;;6.25;5.25;;;;;22.49;48.55;101486.31;4997375;28;45391;-49
2022/10/31 01:11:30;;;;;;;;;7.00;6.00;;;;;22.48;48.95;101481.97;4998693;28;45586;-54
2022/10/31 01:13:55;;;;;;;;;7.00;6.00;;;;;22.49;48.83;101477.53;5001933;28;45434;-54
2022/10/31 01:16:24;;;;;;;;;6.75;6.25;;;;;22.48;48.81;101468.75;5009247;28;45162;-52
2022/10/31 01:18:50;;;;;;;;;8.00;7.25;;;;;22.48;48.63;101458.19;5008281;28;45309;-55
2022/10/31 01:21:19;;;;;;;;;9.00;6.00;;;;;22.48;48.44;101458.19;5007528;28;45013;-57
2022/10/31 01:23:44;;;;;;;;;7.25;7.25;;;;;22.47;48.84;101456.47;5002507;28;46133;-52
2022/10/31 01:26:14;;;;;;;;;7.00;7.00;;;;;22.47;48.64;101448.56;5000659;28;45762;-57
2022/10/31 01:28:51;;;;;;;;;7.00;7.00;;;;;22.48;48.52;101449.41;5001325;28;45312;-56
2022/10/31 01:31:18;;;;;;;;;6.00;6.00;;;;;22.47;48.72;101451.19;5000883;28;45309;-53
2022/10/31 01:33:43;;;;;;;;;7.00;6.00;;;;;22.47;48.62;101450.34;5001000;28;46292;-54
2022/10/31 01:36:28;;;;;;;;;7.00;7.00;;;;;22.47;48.69;101451.19;5012805;28;50789;-56
2022/10/31 01:38:57;;;;;;;;;7.50;6.00;;;;;22.47;48.84;101445.91;5012100;28;44685;-53
2022/10/31 01:41:26;;;;;;;;;9.00;7.75;;;;;22.47;48.67;101450.34;5001114;28;45176;-56
2022/10/31 01:43:54;;;;;;;;;6.50;6.00;;;;;22.47;48.57;101445.91;5000554;28;46408;-56
2022/10/31 01:46:46;;;;;;;;;12.00;7.50;;;;;22.46;48.47;101444.19;5000339;28;45280;-54
2022/10/31 01:49:40;;;;;;;;;9.50;7.75;;;;;22.46;48.85;101436.28;5003433;28;45395;-48
2022/10/31 01:52:30;;;;;;;;;8.50;7.50;;;;;22.46;48.57;101427.50;5006486;28;45361;-46
2022/10/31 01:55:01;;;;;;;;;8.25;6.00;;;;;22.45;48.84;101421.38;5005342;28;45349;-55
2022/10/31 01:57:27;;;;;;;;;7.00;7.00;;;;;22.45;48.85;101429.28;5001646;28;45398;-55
2022/10/31 01:59:57;;;;;;;;;6.00;4.50;;;;;22.45;48.81;101426.66;5002931;28;45352;-54
2022/10/31 02:02:24;;;;;;;;;5.25;5.25;;;;;22.45;48.61;101434.56;5001103;28;45288;-53
2022/10/31 02:04:50;;;;;;;;;6.75;6.25;;;;;22.45;48.72;101431.94;4999560;28;46129;-53
2022/10/31 02:07:27;;;;;;;;;6.00;6.00;;;;;22.45;48.76;101434.56;5000367;28;45686;-56
2022/10/31 02:09:54;;;;;;;;;8.00;7.00;;;;;22.46;48.24;101432.81;5000525;28;45311;-56
2022/10/31 02:12:20;;;;;;;;;5.75;5.50;;;;;22.45;48.73;101431.09;5000163;28;45518;-53
2022/10/31 02:14:46;;;;;;;;;8.00;7.00;;;;;22.44;48.83;101427.59;5000652;28;47161;-55
2022/10/31 02:17:11;;;;;;;;;6.75;6.75;;;;;22.45;48.88;101426.66;4999487;28;45945;-46
2022/10/31 02:19:55;;;;;;;;;7.50;7.00;;;;;22.45;48.81;101424.00;5000478;28;45492;-51
2022/10/31 02:22:57;;;;;;;;;7.00;6.00;;;;;22.44;48.74;101406.44;4998733;28;45803;-51
2022/10/31 02:25:45;;;;;;;;;8.25;5.50;;;;;22.44;48.57;101403.81;4999733;28;46141;-54
2022/10/31 02:28:28;;;;;;;;;6.00;6.00;;;;;22.44;48.64;101401.16;4999125;28;45667;-53
2022/10/31 02:31:20;;;;;;;;;8.00;6.25;;;;;22.44;48.75;101413.53;4999906;28;45269;-51
2022/10/31 02:33:45;;;;;;;;;6.00;6.00;;;;;22.44;49.00;101405.63;5004044;28;45326;-53
2022/10/31 02:36:28;;;;;;;;;6.67;6.00;;;;;22.45;48.75;101412.59;5004785;28;46019;-55
2022/10/31 02:39:26;;;;;;;;;6.00;6.00;;;;;22.44;49.12;101400.31;5000738;28;45375;-55
2022/10/31 02:42:19;;;;;;;;;8.00;7.00;;;;;22.43;48.62;101396.84;5000241;28;45317;-55
2022/10/31 02:45:21;;;;;;;;;6.00;6.00;;;;;22.42;48.74;101389.84;4999749;28;45230;-53
2022/10/31 02:47:50;;;;;;;;;6.00;5.50;;;;;22.43;48.80;101388.06;4996011;28;46701;-56
2022/10/31 02:50:28;;;;;;;;;8.50;6.25;;;;;22.44;48.71;101381.84;5000164;28;45324;-56
2022/10/31 02:52:53;;;;;;;;;9.00;6.50;;;;;22.43;48.67;101374.84;4999451;28;45400;-55
2022/10/31 02:55:24;;;;;;;;;4.00;3.00;;;;;22.43;48.67;101383.66;5000295;28;45530;-56
2022/10/31 02:57:56;;;;;;;;;9.25;5.25;;;;;22.42;48.87;101381.94;4998989;28;45383;-47
2022/10/31 03:00:22;;;;;;;;;6.00;6.00;;;;;22.43;48.80;101378.34;4999578;28;45727;-45
2022/10/31 03:03:03;;;;;;;;;6.00;6.00;;;;;22.43;48.91;101381.00;4999634;28;45249;-51
2022/10/31 03:05:49;;;;;;;;;7.00;6.00;;;;;22.42;48.76;101376.66;4999946;28;45349;-54
2022/10/31 03:08:39;;;;;;;;;9.00;7.50;;;;;22.42;48.82;101371.38;4999513;28;46348;-49
2022/10/31 03:11:07;;;;;;;;;8.00;6.75;;;;;22.42;48.76;101376.66;5001081;28;45713;-46
2022/10/31 03:13:41;;;;;;;;;7.00;7.00;;;;;22.42;48.67;101375.78;5003692;28;45379;-56
2022/10/31 03:16:12;;;;;;;;;8.00;7.00;;;;;22.42;48.89;101368.72;5004010;28;45395;-56
2022/10/31 03:18:43;;;;;;;;;7.00;7.00;;;;;22.42;48.76;101368.72;4997961;28;48364;-54
2022/10/31 03:21:21;;;;;;;;;6.25;6.25;;;;;22.43;48.68;101374.84;5001608;28;45363;-55
2022/10/31 03:23:48;;;;;;;;;6.00;6.00;;;;;22.41;48.74;101374.94;5002765;28;45165;-53
2022/10/31 03:26:15;;;;;;;;;9.25;8.00;;;;;22.42;48.65;101374.00;5000116;28;45530;-55
2022/10/31 03:28:46;;;;;;;;;7.00;7.00;;;;;22.42;48.80;101368.72;5000634;28;45656;-54
2022/10/31 03:31:15;;;;;;;;;6.50;6.50;;;;;22.43;49.17;101365.16;5004972;28;45159;-57
2022/10/31 03:33:43;;;;;;;;;9.00;7.00;;;;;22.41;48.68;101359.09;5003512;28;45475;-55
2022/10/31 03:36:14;;;;;;;;;7.00;7.00;;;;;22.42;48.61;101362.56;5003201;28;45446;-56
2022/10/31 03:38:42;;;;;;;;;9.25;7.75;;;;;22.42;48.68;101354.66;5003446;28;46361;-55
2022/10/31 03:41:13;;;;;;;;;8.75;7.25;;;;;22.41;48.94;101352.94;4999539;28;45391;-52
2022/10/31 03:43:46;;;;;;;;;6.00;5.25;;;;;22.40;49.00;101344.16;5002082;28;45461;-52
2022/10/31 03:46:12;;;;;;;;;6.75;6.25;;;;;22.40;49.06;101344.16;5011236;28;45442;-55
2022/10/31 03:48:38;;;;;;;;;7.00;7.00;;;;;22.41;48.82;101343.25;5009193;28;47352;-48
2022/10/31 03:51:06;;;;;;;;;10.75;7.00;;;;;22.43;48.74;101344.03;5007262;28;45284;-54
2022/10/31 03:54:05;;;;;;;;;8.25;8.25;;;;;22.42;48.87;101339.69;5006805;28;45405;-52
2022/10/31 03:56:37;;;;;;;;;7.00;7.00;;;;;22.42;49.10;101333.53;4988741;28;45317;-54
2022/10/31 03:59:13;;;;;;;;;6.00;6.00;;;;;22.41;48.77;101339.75;4999777;28;45399;-56
2022/10/31 04:01:44;;;;;;;;;7.25;5.50;;;;;22.41;49.10;101330.03;4998799;28;45428;-51
2022/10/31 04:04:10;;;;;;;;;9.25;7.50;;;;;22.39;49.09;101327.44;4998662;28;45242;-52
2022/10/31 04:06:39;;;;;;;;;5.50;5.25;;;;;22.40;48.91;101328.31;4999561;28;45762;-55
2022/10/31 04:09:08;;;;;;;;;7.00;6.25;;;;;22.41;49.03;101326.53;4998006;28;46518;-53
2022/10/31 04:11:42;;;;;;;;;7.00;7.00;;;;;22.42;48.79;101322.97;4998786;28;45234;-55
2022/10/31 04:14:08;;;;;;;;;8.25;6.75;;;;;22.40;48.70;101320.38;4998070;28;45264;-50
2022/10/31 04:16:34;;;;;;;;;7.00;7.00;;;;;22.41;48.94;101324.75;4998366;28;45325;-53
2022/10/31 04:18:59;;;;;;;;;8.50;7.00;;;;;22.39;48.98;101313.41;4997585;28;46252;-52
2022/10/31 04:21:29;;;;;;;;;8.50;5.75;;;;;22.39;48.75;101327.44;4998213;28;45364;-51
2022/10/31 04:23:55;;;;;;;;;8.00;7.00;;;;;22.40;49.06;101323.03;4997785;28;45407;-52
2022/10/31 04:26:21;;;;;;;;;6.75;6.25;;;;;22.40;48.84;101325.66;4999327;28;45233;-53
2022/10/31 04:28:46;;;;;;;;;8.25;8.25;;;;;22.39;49.01;101316.88;4999667;28;47167;-50
2022/10/31 04:31:12;;;;;;;;;7.00;7.00;;;;;22.39;48.86;101322.16;5002696;28;45376;-54
2022/10/31 04:33:37;;;;;;;;;10.00;8.00;;;;;22.40;48.51;101323.03;5003601;28;45383;-53
2022/10/31 04:36:04;;;;;;;;;7.25;7.25;;;;;22.40;48.99;101325.66;5016576;28;45542;-53
2022/10/31 04:38:29;;;;;;;;;7.75;6.75;;;;;22.40;49.02;101320.38;5018455;28;46549;-54
2022/10/31 04:40:55;;;;;;;;;10.00;6.50;;;;;22.39;49.02;101321.31;4998055;28;45309;-54
2022/10/31 04:43:20;;;;;;;;;8.00;8.00;;;;;22.39;48.95;101316.88;4998804;28;45167;-47
2022/10/31 04:45:45;;;;;;;;;6.75;6.75;;;;;22.40;48.82;101307.19;4998402;28;45582;-54
2022/10/31 04:48:11;;;;;;;;;10.50;7.25;;;;;22.39;48.91;101303.66;4997349;28;46017;-47
2022/10/31 04:50:36;;;;;;;;;8.50;7.50;;;;;22.39;49.08;101305.47;4997192;28;56830;-50
2022/10/31 04:53:01;;;;;;;;;8.25;7.75;;;;;22.39;48.84;101302.84;4997934;28;45375;-47
2022/10/31 04:55:27;;;;;;;;;6.25;6.25;;;;;22.38;49.00;101291.41;4998897;28;45660;-49
2022/10/31 04:57:52;;;;;;;;;9.00;8.00;;;;;22.39;48.84;101284.34;5000224;28;45341;-52
2022/10/31 05:00:20;;;;;;;;;6.75;6.75;;;;;22.39;49.11;101276.41;4999286;28;45480;-51
2022/10/31 05:02:53;;;;;;;;;10.00;7.75;;;;;22.39;49.14;101276.41;4999524;28;45434;-48
2022/10/31 05:05:23;;;;;;;;;7.50;7.50;;;;;22.39;48.91;101279.06;5003253;28;45433;-53
2022/10/31 05:07:50;;;;;;;;;7.75;7.25;;;;;22.38;48.82;101277.34;5004651;28;45344;-53
2022/10/31 05:10:18;;;;;;;;;8.75;8.75;;;;;22.38;48.87;101277.34;4998554;28;45216;-51
2022/10/31 05:12:51;;;;;;;;;9.00;9.00;;;;;22.38;49.14;101277.34;4997427;28;45356;-53
2022/10/31 05:15:18;;;;;;;;;7.25;7.25;;;;;22.38;49.03;101272.06;4997659;28;45272;-50
2022/10/31 05:17:43;;;;;;;;;7.00;7.00;;;;;22.38;48.74;101266.78;4997686;28;45399;-50
2022/10/31 05:20:10;;;;;;;;;4.25;4.25;;;;;22.36;48.86;101266.03;4997663;28;45426;-57
2022/10/31 05:22:36;;;;;;;;;8.00;7.25;;;;;22.38;49.13;101256.22;4997997;28;45744;-55
2022/10/31 05:25:01;;;;;;;;;8.00;6.25;;;;;22.38;48.88;101250.94;4997203;28;45811;-56
2022/10/31 05:27:26;;;;;;;;;7.50;7.50;;;;;22.37;48.86;101243.97;4997114;28;48737;-45
2022/10/31 05:29:51;;;;;;;;;8.00;8.00;;;;;22.38;48.89;101240.38;4997239;28;45285;-54
2022/10/31 05:32:17;;;;;;;;;7.50;6.00;;;;;22.37;48.95;101233.41;4997136;28;46545;-52
2022/10/31 05:34:42;;;;;;;;;8.00;6.75;;;;;22.35;48.98;101235.28;4996735;28;45713;-48
2022/10/31 05:37:07;;;;;;;;;10.00;8.00;;;;;22.35;49.06;101237.91;4997271;28;45612;-57
2022/10/31 05:39:33;;;;;;;;;9.00;8.00;;;;;22.35;48.95;101245.84;4997337;28;45267;-52
2022/10/31 05:41:58;;;;;;;;;9.00;8.25;;;;;22.34;49.05;101249.41;4997490;28;47066;-57
2022/10/31 05:44:23;;;;;;;;;16.33;12.33;;;;;22.36;49.30;101247.53;5002422;28;51139;-57
2022/10/31 05:46:49;;;;;;;;;20.00;17.00;;;;;22.36;49.04;101255.47;5002876;28;46072;-57
2022/10/31 05:49:14;;;;;;;;;20.00;18.75;;;;;22.35;49.15;101249.34;4996526;28;50851;-54
2022/10/31 05:51:39;;;;;;;;;21.75;20.00;;;;;22.35;49.04;101241.41;4998815;28;45242;-58
2022/10/31 05:54:05;;;;;;;;;20.50;19.75;;;;;22.35;49.22;101240.56;4997737;28;45571;-57
2022/10/31 05:56:30;;;;;;;;;23.50;20.50;;;;;22.36;49.37;101236.97;4996674;28;51912;-52
2022/10/31 05:58:55;;;;;;;;;27.00;26.50;;;;;22.35;49.04;101241.41;4996157;28;53943;-56
2022/10/31 06:01:21;;;;;;;;;23.25;23.25;;;;;22.35;48.87;101230.00;4996614;28;45421;-54
2022/10/31 06:03:46;;;;;;;;;25.50;23.75;;;;;22.36;49.36;101229.06;4998947;28;45475;-54
2022/10/31 06:06:12;;;;;;;;;24.50;23.75;;;;;22.36;49.32;101226.41;4999884;28;47085;-53
2022/10/31 06:08:37;;;;;;;;;22.75;21.75;;;;;22.36;49.57;101229.06;5000193;28;45375;-47
2022/10/31 06:11:02;;;;;;;;;24.50;21.25;;;;;22.35;49.18;101224.72;4999616;28;45393;-54
2022/10/31 06:13:27;;;;;;;;;20.75;19.75;;;;;22.36;49.20;101229.06;4999897;28;45466;-53
2022/10/31 06:15:53;;;;;;;;;19.67;19.67;;;;;22.36;49.07;101221.13;4999346;28;66422;-52
2022/10/31 06:18:18;;;;;;;;;22.25;22.25;;;;;22.35;49.36;101219.44;4999382;28;46941;-49
2022/10/31 06:20:43;;;;;;;;;20.00;20.00;;;;;22.35;49.42;101207.09;5006508;28;45457;-48
2022/10/31 06:23:09;;;;;;;;;22.25;21.25;;;;;22.34;49.27;101200.09;5011392;28;45312;-49
2022/10/31 06:25:34;;;;;;;;;18.25;17.75;;;;;22.34;49.48;101209.78;5017309;28;51581;-54
2022/10/31 06:28:00;;;;;;;;;20.50;20.50;;;;;22.33;49.19;101201.03;5014418;28;44723;-50
2022/10/31 06:30:25;;;;;;;;;22.75;19.75;;;;;22.33;49.32;101205.44;5018236;28;44721;-52
2022/10/31 06:32:51;;;;;;;;;18.75;18.75;;;;;22.34;49.45;101201.88;5018954;28;45348;-48
2022/10/31 06:35:16;;;;;;;;;20.25;18.25;;;;;22.33;49.25;101200.16;5011754;28;51511;-53
2022/10/31 06:37:42;;;;;;;;;20.75;19.50;;;;;22.33;49.46;101205.44;5005434;28;45335;-52
2022/10/31 06:40:07;;;;;;;;;20.00;20.00;;;;;22.33;49.18;101208.97;4999757;28;45310;-49
2022/10/31 06:42:33;;;;;;;;;19.25;18.25;;;;;22.33;49.20;101205.44;4998937;28;45182;-49
2022/10/31 06:44:58;;;;;;;;;20.33;20.00;;;;;22.32;49.34;101209.91;4999026;28;58940;-54
2022/10/31 06:47:23;;;;;;;;;19.75;19.75;;;;;22.31;49.21;101197.63;4998007;28;48867;-52
2022/10/31 06:49:49;;;;;;;;;18.50;18.25;;;;;22.32;49.29;101203.78;4998405;28;45332;-48
2022/10/31 06:52:14;;;;;;;;;17.50;16.25;;;;;22.32;49.09;101198.50;5000264;28;45225;-49
2022/10/31 06:54:40;;;;;;;;;17.25;15.75;;;;;22.33;49.17;101205.44;5003411;28;46153;-51
2022/10/31 06:57:05;;;;;;;;;17.00;16.75;;;;;22.32;49.26;101206.41;5004207;28;45301;-56
2022/10/31 06:59:30;;;;;;;;;14.50;14.50;;;;;22.31;49.29;101202.91;5000734;28;45218;-55
2022/10/31 07:01:58;;;;;;;;;17.25;17.25;;;;;22.32;49.20;101193.22;5001029;28;45553;-55
2022/10/31 07:04:24;;;;;;;;;14.75;14.75;;;;;22.31;49.18;101191.50;5004669;28;46511;-46
2022/10/31 07:06:52;;;;;;;;;19.00;15.75;;;;;22.32;48.88;101193.22;5006722;28;45873;-51
2022/10/31 07:09:17;;;;;;;;;16.25;16.25;;;;;22.32;49.12;101198.50;5006767;28;44695;-53
2022/10/31 07:11:43;;;;;;;;;18.00;15.00;;;;;22.30;49.08;101190.66;5002950;28;45646;-46
2022/10/31 07:14:08;;;;;;;;;17.00;15.00;;;;;22.31;49.20;101191.50;5000878;28;55116;-52
2022/10/31 07:16:33;;;;;;;;;16.50;15.25;;;;;22.30;49.13;101195.94;5000140;28;45328;-52
2022/10/31 07:18:59;;;;;;;;;16.75;16.50;;;;;22.30;49.26;101189.81;5000344;28;45298;-45
2022/10/31 07:21:24;;;;;;;;;15.67;15.67;;;;;22.32;48.91;101195.84;5000307;28;50643;-52
2022/10/31 07:23:49;;;;;;;;;20.75;16.00;;;;;22.30;48.97;101181.88;5002042;28;45424;-46
2022/10/31 07:26:15;;;;;;;;;14.25;13.75;;;;;22.30;48.99;101176.59;5020919;28;44628;-51
2022/10/31 07:28:40;;;;;;;;;16.00;13.75;;;;;22.30;49.13;101176.59;5015654;28;45241;-57
2022/10/31 07:31:05;;;;;;;;;13.25;13.25;;;;;22.30;48.88;101181.88;5000186;28;45344;-49
2022/10/31 07:33:31;;;;;;;;;16.00;14.50;;;;;22.30;49.12;101181.88;4999623;28;45376;-47
2022/10/31 07:35:56;;;;;;;;;13.00;12.00;;;;;22.30;48.93;101179.25;5002916;28;45612;-51
2022/10/31 07:38:22;;;;;;;;;12.75;12.75;;;;;22.29;49.22;101166.97;5005633;28;45332;-55
2022/10/31 07:40:54;;;;;;;;;16.75;13.00;;;;;22.29;49.18;101177.53;5006147;28;45361;-56
2022/10/31 07:43:19;;;;;;;;;12.25;12.25;;;;;22.30;49.49;101179.25;5007268;28;47111;-55
2022/10/31 07:45:53;;;;;;;;;12.75;11.25;;;;;22.29;49.05;101177.53;5014977;28;45150;-54
2022/10/31 07:48:18;;;;;;;;;10.25;10.00;;;;;22.31;49.05;101183.59;5005217;28;45260;-54
2022/10/31 07:50:44;;;;;;;;;13.50;9.00;;;;;22.30;49.04;101184.53;4999353;28;45341;-51
2022/10/31 07:53:11;;;;;;;;;11.50;11.50;;;;;22.31;49.32;101176.50;5000344;28;47296;-53
2022/10/31 07:55:37;;;;;;;;;15.00;11.50;;;;;22.32;49.18;101172.09;4999804;28;45398;-55
2022/10/31 07:58:09;;;;;;;;;16.00;11.75;;;;;22.34;49.20;101176.34;5007972;28;45707;-47
2022/10/31 08:00:36;;;;;;;;;14.25;11.50;;;;;22.35;48.85;101174.53;5012618;28;45595;-56
2022/10/31 08:03:19;;;;;;;;;13.00;9.50;;;;;22.34;49.05;101165.78;5004752;28;45469;-52
2022/10/31 08:05:45;;;;;;;;;12.25;12.25;;;;;22.34;49.39;101170.19;5003938;28;45250;-54
2022/10/31 08:08:12;;;;;;;;;12.75;10.00;;;;;22.33;49.37;101171.13;5003763;28;45460;-53
2022/10/31 08:10:38;;;;;;;;;12.00;11.00;;;;;22.31;49.53;101168.59;5002554;28;45397;-44
2022/10/31 08:13:06;;;;;;;;;12.50;11.00;;;;;22.35;49.32;101174.53;5001607;28;46782;-57
2022/10/31 08:15:34;;;;;;;;;9.00;9.00;;;;;22.35;49.37;101166.59;4999382;28;46300;-56
2022/10/31 08:17:59;;;;;;;;;10.50;9.50;;;;;22.37;49.45;101173.53;4999474;28;45241;-60
2022/10/31 08:20:24;;;;;;;;;11.75;10.00;;;;;22.37;49.22;101170.88;4999282;28;45637;-50
2022/10/31 08:23:04;;;;;;;;;10.75;9.00;;;;;22.36;49.35;101171.81;4998513;28;49314;-56
2022/10/31 08:25:33;;;;;;;;;13.00;10.00;;;;;22.36;49.07;101165.66;4997585;28;45798;-55
2022/10/31 08:27:59;;;;;;;;;14.00;14.00;;;;;22.34;48.84;101165.78;4998426;28;45375;-56
2022/10/31 08:30:27;;;;;;;;;16.50;15.25;;;;;22.28;48.57;101160.84;4998311;28;45343;-54
2022/10/31 08:33:04;;;;;;;;;19.25;15.25;;;;;22.19;48.59;101150.81;4997901;28;45447;-54
2022/10/31 13:18:09;;;;;;;;;19.75;16.75;;;;;22.31;49.45;100669.53;5837459;22;46381;-46
2022/10/31 13:20:42;;;;;;;;;17.75;16.25;;;;;22.30;49.70;100667.84;5041545;28;45386;-48
2022/10/31 13:23:19;;;;;;;;;20.50;17.50;;;;;22.28;49.78;100653.06;5039509;28;45703;-52
2022/10/31 13:25:56;;;;;;;;;21.50;19.00;;;;;22.29;49.75;100654.75;5041381;28;45425;-48
2022/10/31 13:28:57;;;;;;;;;20.25;18.00;;;;;22.27;49.83;100652.19;5047535;28;45864;-51
2022/10/31 13:31:22;;;;;;;;;19.75;16.25;;;;;22.28;49.98;100629.31;5035195;28;45347;-46
2022/10/31 13:33:55;;;;;;;;;21.25;17.75;;;;;22.30;50.21;100632.69;5042465;28;45335;-45
2022/10/31 13:36:36;;;;;;;;;21.50;16.75;;;;;22.30;50.26;100630.06;5040559;28;45338;-48
2022/10/31 13:39:44;;;;;;;;;19.00;16.00;;;;;22.31;50.34;100631.75;5041206;28;45944;-47
2022/10/31 13:42:38;;;;;;;;;16.75;12.75;;;;;22.32;50.74;100633.44;5011700;28;45235;-51
2022/10/31 13:45:23;;;;;;;;;15.25;15.25;;;;;22.29;50.30;100633.63;5040495;28;45393;-47
2022/10/31 13:48:15;;;;;;;;;20.00;15.50;;;;;22.30;50.63;100630.06;5040199;28;46228;-53
2022/10/31 13:50:42;;;;;;;;;15.50;13.50;;;;;22.26;50.97;100612.72;5016678;28;45936;-47
2022/10/31 13:53:17;;;;;;;;;14.00;13.00;;;;;22.27;50.51;100609.13;5047206;28;45411;-47
2022/10/31 13:55:46;;;;;;;;;15.50;13.75;;;;;22.23;50.97;100604.03;5046647;28;45224;-51
2022/10/31 13:58:26;;;;;;;;;14.75;12.75;;;;;22.22;50.85;100591.78;5040909;28;46069;-53
2022/10/31 14:00:59;;;;;;;;;18.75;16.00;;;;;22.23;50.90;100593.50;5038910;28;45330;-50
2022/10/31 14:03:25;;;;;;;;;17.25;13.00;;;;;22.23;51.21;100592.66;5040562;28;45420;-50
2022/10/31 14:05:55;;;;;;;;;16.25;13.50;;;;;22.21;51.03;100590.09;5041463;28;45578;-52
2022/10/31 14:08:23;;;;;;;;;14.50;12.75;;;;;22.20;50.78;100582.28;5040817;28;46369;-48
2022/10/31 14:10:52;;;;;;;;;14.25;13.25;;;;;22.17;50.98;100564.88;5042420;28;45330;-53
2022/10/31 14:13:27;;;;;;;;;14.00;12.50;;;;;22.17;51.07;100567.50;5049013;28;45231;-48
2022/10/31 14:16:00;;;;;;;;;15.00;14.00;;;;;22.16;51.16;100554.44;5053219;28;45243;-51
2022/10/31 14:18:33;;;;;;;;;11.75;11.75;;;;;22.16;51.01;100554.44;5057203;28;47410;-49
2022/10/31 14:20:58;;;;;;;;;19.25;16.50;;;;;22.16;50.85;100559.72;5061785;28;45104;-52
2022/10/31 14:23:29;;;;;;;;;13.75;13.00;;;;;22.15;51.03;100556.19;5061291;28;44749;-49
2022/10/31 14:26:07;;;;;;;;;16.75;13.50;;;;;22.16;50.94;100557.06;5060553;28;45323;-49
2022/10/31 14:28:35;;;;;;;;;15.25;13.50;;;;;22.14;50.97;100551.88;5041857;28;46160;-51
2022/10/31 14:31:01;;;;;;;;;15.25;12.25;;;;;22.14;50.80;100551.03;5047049;28;45429;-49
2022/10/31 14:33:30;;;;;;;;;19.00;13.00;;;;;22.13;51.03;100544.06;5047189;28;45228;-50
2022/10/31 14:36:14;;;;;;;;;14.00;13.25;;;;;22.12;50.86;100548.47;5042604;28;45532;-51
2022/10/31 14:39:12;;;;;;;;;16.50;12.50;;;;;22.13;50.96;100546.72;5041344;28;46177;-52
2022/10/31 14:41:59;;;;;;;;;13.00;12.00;;;;;22.13;50.96;100549.34;5043105;28;45118;-51
2022/10/31 14:44:39;;;;;;;;;15.75;14.00;;;;;22.08;51.02;100533.81;5043938;28;45366;-51
2022/10/31 14:47:32;;;;;;;;;16.00;13.00;;;;;22.07;50.87;100540.03;5039674;28;45299;-53
2022/10/31 14:50:34;;;;;;;;;14.00;13.25;;;;;22.09;51.06;100538.97;5031458;28;46500;-49
2022/10/31 14:53:03;;;;;;;;;17.00;14.25;;;;;22.08;51.03;100531.19;5039359;28;45847;-49
2022/10/31 14:55:29;;;;;;;;;15.00;14.25;;;;;22.08;50.99;100536.47;5039795;28;45383;-49
2022/10/31 14:58:05;;;;;;;;;15.00;11.50;;;;;22.09;51.15;100532.88;5039450;28;45479;-51
2022/10/31 15:00:35;;;;;;;;;19.00;13.50;;;;;22.07;51.13;100526.84;5038710;28;46594;-49
2022/10/31 15:03:12;;;;;;;;;13.25;13.25;;;;;22.07;51.24;100529.50;5038743;28;45461;-48
2022/10/31 15:05:46;;;;;;;;;13.50;12.75;;;;;22.06;51.10;100533.06;5039623;28;45413;-50
2022/10/31 15:08:32;;;;;;;;;15.25;13.25;;;;;22.07;51.28;100524.22;5043419;28;45426;-48
2022/10/31 15:10:57;;;;;;;;;16.75;13.75;;;;;22.07;51.18;100529.50;5045736;28;46904;-46
2022/10/31 15:13:23;;;;;;;;;17.50;13.00;;;;;22.09;51.22;100527.59;5040937;28;45346;-47
2022/10/31 15:15:52;;;;;;;;;13.50;13.25;;;;;22.09;51.32;100528.44;5040064;28;45653;-49
2022/10/31 15:18:25;;;;;;;;;15.75;13.75;;;;;22.08;51.46;100517.97;5045799;28;45302;-49
2022/10/31 15:20:53;;;;;;;;;13.00;11.75;;;;;22.08;51.29;100521.44;5042158;28;47170;-48
2022/10/31 15:23:26;;;;;;;;;14.00;13.00;;;;;22.08;51.35;100513.53;5038688;28;45445;-47
2022/10/31 15:25:58;;;;;;;;;17.50;14.00;;;;;22.08;51.34;100521.44;5042812;28;45301;-51
2022/10/31 15:28:25;;;;;;;;;13.75;13.75;;;;;22.07;51.35;100513.66;5046741;28;45335;-49
2022/10/31 15:30:52;;;;;;;;;17.50;13.25;;;;;22.09;51.28;100511.75;5039727;28;45409;-49
2022/10/31 15:33:24;;;;;;;;;15.00;13.00;;;;;22.08;51.35;100505.63;5040272;28;45386;-50
2022/10/31 15:35:58;;;;;;;;;12.75;12.25;;;;;22.08;51.30;100499.50;5038695;28;45264;-48
2022/10/31 15:38:25;;;;;;;;;19.00;13.25;;;;;22.07;51.40;100497.81;5040165;28;45279;-49
2022/10/31 15:41:01;;;;;;;;;14.00;13.75;;;;;22.08;51.50;100495.06;5040040;28;46084;-50
2022/10/31 15:43:34;;;;;;;;;17.25;14.00;;;;;22.08;51.50;100488.94;5040629;28;45542;-49
2022/10/31 15:46:01;;;;;;;;;14.50;12.00;;;;;22.06;51.45;100481.13;5045041;28;45171;-49
2022/10/31 15:48:27;;;;;;;;;14.00;11.50;;;;;22.04;51.44;100475.13;5044716;28;45320;-47
2022/10/31 15:50:57;;;;;;;;;17.00;13.75;;;;;22.05;51.52;100475.97;5040785;28;46378;-48
2022/10/31 15:53:30;;;;;;;;;19.25;13.50;;;;;22.06;51.21;100477.66;5040590;28;45226;-49
2022/10/31 15:56:07;;;;;;;;;13.00;10.75;;;;;22.06;51.33;100467.91;5044735;28;45283;-49
2022/10/31 15:58:39;;;;;;;;;14.00;12.00;;;;;22.06;51.18;100464.44;5044032;28;45316;-46
2022/10/31 16:01:18;;;;;;;;;13.75;11.75;;;;;22.06;51.49;100464.44;5042593;28;45334;-50
2022/10/31 16:03:44;;;;;;;;;12.50;12.50;;;;;22.04;51.42;100456.66;5039439;28;45424;-50
2022/10/31 16:06:20;;;;;;;;;15.00;13.25;;;;;22.06;51.18;100453.91;5039875;28;45356;-51
2022/10/31 16:08:48;;;;;;;;;11.00;9.25;;;;;22.04;51.26;100453.16;5038123;28;45276;-50
2022/10/31 16:11:31;;;;;;;;;14.50;12.75;;;;;22.03;51.19;100457.59;5044311;28;46594;-48
2022/10/31 16:14:01;;;;;;;;;16.50;13.50;;;;;22.02;51.14;100442.72;5052377;28;45307;-49